Whites City, New Mexico
Current Conditions -  °F | °C
As of 9:53 AM on Sunday 23 Nov 2014 (Local Time) from KCNM Reporting Station
Clear Clear  
Wind Chill: 66°   Ceiling: Unl
Heat Index: 66°   Visibility: 10mi
Dew Point: 22°   Wind: 30mph
Humidity: 19%   Direction: 280°W
Pressure: 29.74"   Gusts: 44mph
Location:  32.18°N, 104.37°W
Report Text: KCNM 231653Z AUTO 28026G38KT 10SM CLR 19/M06 A2974 RMK AO2 PK WND 27039/1601 SLP031 T01891056
Loading
Personal Weather Stations






























Interactive Weather Map New forecast layout! Learn more

10-Day Weather Forecast

Advertisements
Track Severe Weather on mobile